Accueil
METAR-TAF:

METAR-TAF

Aéroports :

Sion, Suisse

Aéroport de Sion

latitude: 46-13N, longitude: 007-20E, altitude: 482 m

Observation

Le bulletin a été fait il y a 13 minutes, à 00:20 UTC
Vent 2 kt de est
Température -2°C
Humidité 80%
Pression 1010 hPa
Visibilité: 4700 m
brume

METAR: LSGS 240020Z AUTO 09002KT 4700 BR NCD M02/M05 Q1010

Heure: 01:33 (00:33 UTC)

Prévision

Le bulletin a été fait il y a 10 heures et 8 minutes, à 14:25 UTC
Prévision valable du 23 à 15 UTC au 23 à 24 UTC
Vent 6 kt de ouest
Visibilité: 9000 m
Quelques nuages à une hauteur de 7000 ft
Nuages épars à une hauteur de 14000 ft
Evoluant progressivement
du 23 à 17 UTC au 23 à 19 UTC
Vent 3 kt de direction variable

TAF: LSGS 231425Z 2315/2324 26006KT 9000 FEW070 SCT140 BECMG 2317/2319 VRB03KT

Observations et prévisions météorologiques de plus de 4000 aéroports (messages METAR et TAF).

Les stations disponibles sont représentées par des disques jaunes et rouges sur la carte.

Passer la souris dessus pour voir le nom de la station.

Cliquer dessus pour voir les observations et prévisions météorologiques.

Pour changer de carte: cliquez sur les boutons verts avec une croix noire pour zoomer, sur le bouton vert avec un tiret pour effectuer un zoom arrière, ou sur les flèches vertes pour les cartes adjacentes.


METAR-TAF: